sensor_id;sensor_type;location;lat;lon;timestamp;P1;durP1;ratioP1;P2;durP2;ratioP2
72590;SDS011;60625;51.212;5.952;2022-09-12T00:04:35;15.40;;;7.90;;
72590;SDS011;60625;51.212;5.952;2022-09-12T00:09:37;14.30;;;7.60;;
72590;SDS011;60625;51.212;5.952;2022-09-12T00:14:38;12.40;;;7.90;;
72590;SDS011;60625;51.212;5.952;2022-09-12T00:19:39;11.00;;;7.40;;
72590;SDS011;60625;51.212;5.952;2022-09-12T00:24:39;14.60;;;7.10;;
72590;SDS011;60625;51.212;5.952;2022-09-12T00:29:40;15.50;;;6.80;;
72590;SDS011;60625;51.212;5.952;2022-09-12T00:34:40;17.20;;;7.80;;
72590;SDS011;60625;51.212;5.952;2022-09-12T00:39:41;14.20;;;7.60;;
72590;SDS011;60625;51.212;5.952;2022-09-12T00:44:44;15.70;;;8.00;;
72590;SDS011;60625;51.212;5.952;2022-09-12T00:49:51;14.80;;;8.50;;
72590;SDS011;60625;51.212;5.952;2022-09-12T00:55:06;13.00;;;6.60;;
72590;SDS011;60625;51.212;5.952;2022-09-12T01:00:16;10.00;;;6.10;;
72590;SDS011;60625;51.212;5.952;2022-09-12T01:05:19;15.80;;;8.30;;
72590;SDS011;60625;51.212;5.952;2022-09-12T01:10:21;12.70;;;7.90;;
72590;SDS011;60625;51.212;5.952;2022-09-12T01:15:22;11.80;;;7.30;;
72590;SDS011;60625;51.212;5.952;2022-09-12T01:31:36;14.20;;;7.10;;
72590;SDS011;60625;51.212;5.952;2022-09-12T01:42:30;13.30;;;8.10;;
72590;SDS011;60625;51.212;5.952;2022-09-12T01:47:40;14.50;;;7.50;;
72590;SDS011;60625;51.212;5.952;2022-09-12T01:58:02;13.60;;;7.70;;
72590;SDS011;60625;51.212;5.952;2022-09-12T02:03:51;11.40;;;7.40;;
72590;SDS011;60625;51.212;5.952;2022-09-12T02:09:19;12.30;;;7.10;;
72590;SDS011;60625;51.212;5.952;2022-09-12T02:14:25;13.40;;;6.70;;
72590;SDS011;60625;51.212;5.952;2022-09-12T02:19:31;13.30;;;6.00;;
72590;SDS011;60625;51.212;5.952;2022-09-12T02:24:39;12.30;;;7.30;;
72590;SDS011;60625;51.212;5.952;2022-09-12T02:29:43;15.60;;;6.70;;
72590;SDS011;60625;51.212;5.952;2022-09-12T02:40:08;11.40;;;6.70;;
72590;SDS011;60625;51.212;5.952;2022-09-12T02:45:09;11.90;;;6.80;;
72590;SDS011;60625;51.212;5.952;2022-09-12T02:50:12;11.40;;;6.70;;
72590;SDS011;60625;51.212;5.952;2022-09-12T02:55:13;12.00;;;7.00;;
72590;SDS011;60625;51.212;5.952;2022-09-12T03:00:14;12.80;;;6.90;;
72590;SDS011;60625;51.212;5.952;2022-09-12T03:05:34;12.50;;;7.30;;
72590;SDS011;60625;51.212;5.952;2022-09-12T03:16:42;12.50;;;6.80;;
72590;SDS011;60625;51.212;5.952;2022-09-12T03:22:08;11.50;;;6.40;;
72590;SDS011;60625;51.212;5.952;2022-09-12T03:27:15;13.00;;;7.50;;
72590;SDS011;60625;51.212;5.952;2022-09-12T03:32:18;13.60;;;7.10;;
72590;SDS011;60625;51.212;5.952;2022-09-12T03:37:19;13.50;;;6.10;;
72590;SDS011;60625;51.212;5.952;2022-09-12T03:42:19;12.30;;;6.60;;
72590;SDS011;60625;51.212;5.952;2022-09-12T03:47:20;14.70;;;6.80;;
72590;SDS011;60625;51.212;5.952;2022-09-12T03:52:21;16.40;;;7.60;;
72590;SDS011;60625;51.212;5.952;2022-09-12T03:57:22;15.40;;;8.20;;
72590;SDS011;60625;51.212;5.952;2022-09-12T04:02:22;14.30;;;7.70;;
72590;SDS011;60625;51.212;5.952;2022-09-12T04:07:23;16.80;;;8.10;;
72590;SDS011;60625;51.212;5.952;2022-09-12T04:12:23;19.30;;;10.60;;
72590;SDS011;60625;51.212;5.952;2022-09-12T04:17:24;17.70;;;9.00;;
72590;SDS011;60625;51.212;5.952;2022-09-12T04:22:25;16.70;;;9.20;;
72590;SDS011;60625;51.212;5.952;2022-09-12T04:27:25;13.60;;;8.60;;
72590;SDS011;60625;51.212;5.952;2022-09-12T04:32:28;15.00;;;8.30;;
72590;SDS011;60625;51.212;5.952;2022-09-12T04:37:30;18.10;;;9.60;;
72590;SDS011;60625;51.212;5.952;2022-09-12T04:42:30;15.90;;;9.60;;
72590;SDS011;60625;51.212;5.952;2022-09-12T04:47:31;14.30;;;8.60;;
72590;SDS011;60625;51.212;5.952;2022-09-12T04:52:31;19.50;;;11.40;;
72590;SDS011;60625;51.212;5.952;2022-09-12T04:57:32;21.60;;;11.70;;
72590;SDS011;60625;51.212;5.952;2022-09-12T05:02:33;23.30;;;12.90;;
72590;SDS011;60625;51.212;5.952;2022-09-12T05:07:34;23.80;;;13.70;;
72590;SDS011;60625;51.212;5.952;2022-09-12T05:12:35;27.50;;;14.90;;
72590;SDS011;60625;51.212;5.952;2022-09-12T05:17:36;23.00;;;13.30;;
72590;SDS011;60625;51.212;5.952;2022-09-12T05:22:36;22.30;;;13.20;;
72590;SDS011;60625;51.212;5.952;2022-09-12T05:27:37;24.40;;;12.80;;
72590;SDS011;60625;51.212;5.952;2022-09-12T05:32:37;25.50;;;13.00;;
72590;SDS011;60625;51.212;5.952;2022-09-12T05:37:38;22.90;;;13.40;;
72590;SDS011;60625;51.212;5.952;2022-09-12T05:42:39;26.60;;;15.10;;
72590;SDS011;60625;51.212;5.952;2022-09-12T05:47:39;25.60;;;12.60;;
72590;SDS011;60625;51.212;5.952;2022-09-12T05:52:41;23.40;;;14.10;;
72590;SDS011;60625;51.212;5.952;2022-09-12T05:57:45;24.60;;;13.20;;
72590;SDS011;60625;51.212;5.952;2022-09-12T06:02:51;28.20;;;16.30;;
72590;SDS011;60625;51.212;5.952;2022-09-12T06:07:52;24.90;;;15.20;;
72590;SDS011;60625;51.212;5.952;2022-09-12T06:12:53;27.50;;;15.00;;
72590;SDS011;60625;51.212;5.952;2022-09-12T06:17:53;28.50;;;14.90;;
72590;SDS011;60625;51.212;5.952;2022-09-12T06:22:53;30.20;;;16.10;;
72590;SDS011;60625;51.212;5.952;2022-09-12T06:27:54;29.00;;;15.00;;
72590;SDS011;60625;51.212;5.952;2022-09-12T06:32:55;28.20;;;16.00;;
72590;SDS011;60625;51.212;5.952;2022-09-12T06:37:56;23.90;;;14.80;;
72590;SDS011;60625;51.212;5.952;2022-09-12T06:42:56;28.70;;;16.50;;
72590;SDS011;60625;51.212;5.952;2022-09-12T06:48:06;34.20;;;17.20;;
72590;SDS011;60625;51.212;5.952;2022-09-12T06:53:06;31.20;;;17.40;;
72590;SDS011;60625;51.212;5.952;2022-09-12T06:58:07;28.00;;;15.40;;
72590;SDS011;60625;51.212;5.952;2022-09-12T07:03:08;26.90;;;14.60;;
72590;SDS011;60625;51.212;5.952;2022-09-12T07:08:09;28.50;;;15.90;;
72590;SDS011;60625;51.212;5.952;2022-09-12T07:13:10;28.90;;;15.60;;
72590;SDS011;60625;51.212;5.952;2022-09-12T07:18:10;25.80;;;15.80;;
72590;SDS011;60625;51.212;5.952;2022-09-12T07:23:11;27.40;;;16.10;;
72590;SDS011;60625;51.212;5.952;2022-09-12T07:28:12;25.70;;;15.10;;
72590;SDS011;60625;51.212;5.952;2022-09-12T07:33:12;24.90;;;15.30;;
72590;SDS011;60625;51.212;5.952;2022-09-12T07:38:12;27.50;;;16.10;;
72590;SDS011;60625;51.212;5.952;2022-09-12T07:43:13;26.30;;;15.20;;
72590;SDS011;60625;51.212;5.952;2022-09-12T07:48:14;24.00;;;14.40;;
72590;SDS011;60625;51.212;5.952;2022-09-12T07:53:15;24.80;;;14.70;;
72590;SDS011;60625;51.212;5.952;2022-09-12T07:58:16;24.50;;;13.70;;
72590;SDS011;60625;51.212;5.952;2022-09-12T08:03:17;25.80;;;14.10;;
72590;SDS011;60625;51.212;5.952;2022-09-12T08:08:17;29.70;;;15.10;;
72590;SDS011;60625;51.212;5.952;2022-09-12T08:13:18;23.30;;;14.60;;
72590;SDS011;60625;51.212;5.952;2022-09-12T08:18:19;26.70;;;14.40;;
72590;SDS011;60625;51.212;5.952;2022-09-12T08:23:20;24.00;;;14.20;;
72590;SDS011;60625;51.212;5.952;2022-09-12T08:28:26;21.90;;;13.10;;
72590;SDS011;60625;51.212;5.952;2022-09-12T08:33:27;23.40;;;13.50;;
72590;SDS011;60625;51.212;5.952;2022-09-12T08:38:33;27.30;;;14.70;;
72590;SDS011;60625;51.212;5.952;2022-09-12T08:49:08;20.70;;;12.40;;
72590;SDS011;60625;51.212;5.952;2022-09-12T08:54:22;18.50;;;11.80;;
72590;SDS011;60625;51.212;5.952;2022-09-12T08:59:29;19.90;;;12.90;;
72590;SDS011;60625;51.212;5.952;2022-09-12T09:21:02;19.40;;;11.30;;
72590;SDS011;60625;51.212;5.952;2022-09-12T09:26:42;17.10;;;11.50;;
72590;SDS011;60625;51.212;5.952;2022-09-12T09:31:52;16.90;;;10.00;;
72590;SDS011;60625;51.212;5.952;2022-09-12T09:37:12;18.40;;;11.50;;
72590;SDS011;60625;51.212;5.952;2022-09-12T09:42:39;14.70;;;10.20;;
72590;SDS011;60625;51.212;5.952;2022-09-12T09:47:47;18.90;;;10.20;;
72590;SDS011;60625;51.212;5.952;2022-09-12T09:52:51;18.40;;;11.30;;
72590;SDS011;60625;51.212;5.952;2022-09-12T09:57:53;15.50;;;9.60;;
72590;SDS011;60625;51.212;5.952;2022-09-12T10:08:19;15.60;;;8.50;;
72590;SDS011;60625;51.212;5.952;2022-09-12T10:14:22;11.90;;;7.60;;
72590;SDS011;60625;51.212;5.952;2022-09-12T10:18:59;12.40;;;8.10;;
72590;SDS011;60625;51.212;5.952;2022-09-12T10:29:29;12.40;;;8.00;;
72590;SDS011;60625;51.212;5.952;2022-09-12T10:34:43;12.20;;;7.40;;
72590;SDS011;60625;51.212;5.952;2022-09-12T10:40:05;11.60;;;7.30;;
72590;SDS011;60625;51.212;5.952;2022-09-12T10:50:25;12.80;;;7.30;;
72590;SDS011;60625;51.212;5.952;2022-09-12T10:55:32;13.40;;;7.30;;
72590;SDS011;60625;51.212;5.952;2022-09-12T11:00:38;14.30;;;6.20;;
72590;SDS011;60625;51.212;5.952;2022-09-12T11:05:59;10.60;;;6.30;;
72590;SDS011;60625;51.212;5.952;2022-09-12T11:11:26;9.70;;;5.80;;
72590;SDS011;60625;51.212;5.952;2022-09-12T11:22:27;8.70;;;4.00;;
72590;SDS011;60625;51.212;5.952;2022-09-12T11:33:49;6.80;;;3.80;;
72590;SDS011;60625;51.212;5.952;2022-09-12T11:39:11;6.30;;;4.30;;
72590;SDS011;60625;51.212;5.952;2022-09-12T11:44:18;5.70;;;3.30;;
72590;SDS011;60625;51.212;5.952;2022-09-12T11:49:53;6.30;;;3.20;;
72590;SDS011;60625;51.212;5.952;2022-09-12T11:55:14;5.80;;;3.60;;
72590;SDS011;60625;51.212;5.952;2022-09-12T12:00:21;6.60;;;3.90;;
72590;SDS011;60625;51.212;5.952;2022-09-12T12:05:48;7.30;;;3.50;;
72590;SDS011;60625;51.212;5.952;2022-09-12T12:11:24;9.80;;;4.60;;
72590;SDS011;60625;51.212;5.952;2022-09-12T12:16:39;7.80;;;3.20;;
72590;SDS011;60625;51.212;5.952;2022-09-12T12:21:43;9.60;;;4.00;;
72590;SDS011;60625;51.212;5.952;2022-09-12T12:47:40;6.00;;;3.80;;
72590;SDS011;60625;51.212;5.952;2022-09-12T12:52:54;6.70;;;4.30;;
72590;SDS011;60625;51.212;5.952;2022-09-12T12:57:59;8.50;;;4.00;;
72590;SDS011;60625;51.212;5.952;2022-09-12T13:08:08;6.10;;;3.90;;
72590;SDS011;60625;51.212;5.952;2022-09-12T13:13:38;6.30;;;3.70;;
72590;SDS011;60625;51.212;5.952;2022-09-12T13:18:45;8.30;;;4.90;;
72590;SDS011;60625;51.212;5.952;2022-09-12T13:29:24;6.30;;;3.50;;
72590;SDS011;60625;51.212;5.952;2022-09-12T13:34:29;7.10;;;3.40;;
72590;SDS011;60625;51.212;5.952;2022-09-12T13:40:17;5.40;;;3.30;;
72590;SDS011;60625;51.212;5.952;2022-09-12T13:45:34;6.00;;;3.00;;
72590;SDS011;60625;51.212;5.952;2022-09-12T13:50:48;5.70;;;3.50;;
72590;SDS011;60625;51.212;5.952;2022-09-12T13:55:58;5.20;;;2.70;;
72590;SDS011;60625;51.212;5.952;2022-09-12T14:06:09;4.40;;;2.40;;
72590;SDS011;60625;51.212;5.952;2022-09-12T14:11:22;7.70;;;2.90;;
72590;SDS011;60625;51.212;5.952;2022-09-12T14:16:24;5.70;;;2.50;;
72590;SDS011;60625;51.212;5.952;2022-09-12T14:26:35;4.80;;;1.90;;
72590;SDS011;60625;51.212;5.952;2022-09-12T14:31:40;4.40;;;2.50;;
72590;SDS011;60625;51.212;5.952;2022-09-12T14:36:50;4.70;;;2.20;;
72590;SDS011;60625;51.212;5.952;2022-09-12T14:42:20;6.40;;;2.60;;
72590;SDS011;60625;51.212;5.952;2022-09-12T14:47:23;5.30;;;2.50;;
72590;SDS011;60625;51.212;5.952;2022-09-12T14:52:33;4.60;;;2.40;;
72590;SDS011;60625;51.212;5.952;2022-09-12T14:57:39;5.30;;;2.60;;
72590;SDS011;60625;51.212;5.952;2022-09-12T15:02:44;5.10;;;2.90;;
72590;SDS011;60625;51.212;5.952;2022-09-12T15:18:05;7.40;;;2.60;;
72590;SDS011;60625;51.212;5.952;2022-09-12T15:23:13;6.00;;;2.70;;
72590;SDS011;60625;51.212;5.952;2022-09-12T15:28:34;5.60;;;2.40;;
72590;SDS011;60625;51.212;5.952;2022-09-12T15:33:35;4.50;;;2.50;;
72590;SDS011;60625;51.212;5.952;2022-09-12T15:38:36;6.00;;;2.30;;
72590;SDS011;60625;51.212;5.952;2022-09-12T15:43:36;4.90;;;2.60;;
72590;SDS011;60625;51.212;5.952;2022-09-12T15:48:37;5.60;;;2.70;;
72590;SDS011;60625;51.212;5.952;2022-09-12T15:53:38;4.10;;;1.80;;
72590;SDS011;60625;51.212;5.952;2022-09-12T15:58:39;4.30;;;2.30;;
72590;SDS011;60625;51.212;5.952;2022-09-12T16:03:40;4.00;;;1.80;;
72590;SDS011;60625;51.212;5.952;2022-09-12T16:08:41;3.80;;;2.50;;
72590;SDS011;60625;51.212;5.952;2022-09-12T16:13:41;4.40;;;2.20;;
72590;SDS011;60625;51.212;5.952;2022-09-12T16:18:42;5.40;;;2.70;;
72590;SDS011;60625;51.212;5.952;2022-09-12T16:23:44;4.70;;;2.20;;
72590;SDS011;60625;51.212;5.952;2022-09-12T16:28:53;6.60;;;2.80;;
72590;SDS011;60625;51.212;5.952;2022-09-12T16:33:57;4.00;;;1.80;;
72590;SDS011;60625;51.212;5.952;2022-09-12T16:38:58;6.00;;;1.70;;
72590;SDS011;60625;51.212;5.952;2022-09-12T16:43:58;4.10;;;2.00;;
72590;SDS011;60625;51.212;5.952;2022-09-12T16:48:59;4.80;;;2.10;;
72590;SDS011;60625;51.212;5.952;2022-09-12T16:54:00;5.20;;;2.10;;
72590;SDS011;60625;51.212;5.952;2022-09-12T16:59:01;5.40;;;2.50;;
72590;SDS011;60625;51.212;5.952;2022-09-12T17:04:03;5.10;;;2.70;;
72590;SDS011;60625;51.212;5.952;2022-09-12T17:09:04;5.50;;;2.20;;
72590;SDS011;60625;51.212;5.952;2022-09-12T17:14:06;4.80;;;2.20;;
72590;SDS011;60625;51.212;5.952;2022-09-12T17:19:13;7.20;;;2.70;;
72590;SDS011;60625;51.212;5.952;2022-09-12T17:24:17;6.50;;;2.30;;
72590;SDS011;60625;51.212;5.952;2022-09-12T17:29:18;4.90;;;2.40;;
72590;SDS011;60625;51.212;5.952;2022-09-12T17:34:19;4.80;;;2.00;;
72590;SDS011;60625;51.212;5.952;2022-09-12T17:39:20;4.00;;;1.60;;
72590;SDS011;60625;51.212;5.952;2022-09-12T17:44:20;4.50;;;2.30;;
72590;SDS011;60625;51.212;5.952;2022-09-12T17:49:23;5.00;;;2.60;;
72590;SDS011;60625;51.212;5.952;2022-09-12T17:54:24;7.60;;;2.00;;
72590;SDS011;60625;51.212;5.952;2022-09-12T17:59:26;5.50;;;2.30;;
72590;SDS011;60625;51.212;5.952;2022-09-12T18:04:27;6.10;;;2.30;;
72590;SDS011;60625;51.212;5.952;2022-09-12T18:09:29;6.50;;;2.30;;
72590;SDS011;60625;51.212;5.952;2022-09-12T18:14:30;4.50;;;2.40;;
72590;SDS011;60625;51.212;5.952;2022-09-12T18:19:30;5.40;;;2.60;;
72590;SDS011;60625;51.212;5.952;2022-09-12T18:24:31;4.90;;;2.90;;
72590;SDS011;60625;51.212;5.952;2022-09-12T18:29:32;7.40;;;2.70;;
72590;SDS011;60625;51.212;5.952;2022-09-12T18:34:33;6.20;;;3.50;;
72590;SDS011;60625;51.212;5.952;2022-09-12T18:39:34;6.10;;;3.50;;
72590;SDS011;60625;51.212;5.952;2022-09-12T18:44:36;7.30;;;3.50;;
72590;SDS011;60625;51.212;5.952;2022-09-12T18:49:37;7.40;;;3.20;;
72590;SDS011;60625;51.212;5.952;2022-09-12T18:54:37;9.30;;;3.10;;
72590;SDS011;60625;51.212;5.952;2022-09-12T18:59:38;7.80;;;3.70;;
72590;SDS011;60625;51.212;5.952;2022-09-12T19:04:40;5.00;;;2.80;;
72590;SDS011;60625;51.212;5.952;2022-09-12T19:09:40;8.60;;;4.00;;
72590;SDS011;60625;51.212;5.952;2022-09-12T19:14:41;6.20;;;4.30;;
72590;SDS011;60625;51.212;5.952;2022-09-12T19:19:41;7.60;;;4.20;;
72590;SDS011;60625;51.212;5.952;2022-09-12T19:24:42;9.90;;;4.70;;
72590;SDS011;60625;51.212;5.952;2022-09-12T19:29:43;5.30;;;3.30;;
72590;SDS011;60625;51.212;5.952;2022-09-12T19:34:43;7.50;;;3.70;;
72590;SDS011;60625;51.212;5.952;2022-09-12T19:39:44;10.90;;;3.50;;
72590;SDS011;60625;51.212;5.952;2022-09-12T19:44:45;8.80;;;3.10;;
72590;SDS011;60625;51.212;5.952;2022-09-12T19:49:46;10.20;;;3.30;;
72590;SDS011;60625;51.212;5.952;2022-09-12T19:54:47;9.80;;;3.10;;
72590;SDS011;60625;51.212;5.952;2022-09-12T19:59:47;12.90;;;3.40;;
72590;SDS011;60625;51.212;5.952;2022-09-12T20:04:49;5.20;;;2.80;;
72590;SDS011;60625;51.212;5.952;2022-09-12T20:09:50;8.40;;;3.20;;
72590;SDS011;60625;51.212;5.952;2022-09-12T20:14:51;6.30;;;3.10;;
72590;SDS011;60625;51.212;5.952;2022-09-12T20:19:51;8.20;;;2.80;;
72590;SDS011;60625;51.212;5.952;2022-09-12T20:24:52;5.90;;;2.80;;
72590;SDS011;60625;51.212;5.952;2022-09-12T20:29:52;10.10;;;4.40;;
72590;SDS011;60625;51.212;5.952;2022-09-12T20:34:54;13.70;;;3.40;;
72590;SDS011;60625;51.212;5.952;2022-09-12T20:39:55;6.40;;;3.20;;
72590;SDS011;60625;51.212;5.952;2022-09-12T20:44:56;5.60;;;3.50;;
72590;SDS011;60625;51.212;5.952;2022-09-12T20:49:57;7.10;;;4.20;;
72590;SDS011;60625;51.212;5.952;2022-09-12T20:54:57;12.40;;;3.50;;
72590;SDS011;60625;51.212;5.952;2022-09-12T20:59:58;7.80;;;4.00;;
72590;SDS011;60625;51.212;5.952;2022-09-12T21:04:59;7.40;;;3.70;;
72590;SDS011;60625;51.212;5.952;2022-09-12T21:09:59;9.00;;;4.10;;
72590;SDS011;60625;51.212;5.952;2022-09-12T21:15:00;8.60;;;3.80;;
72590;SDS011;60625;51.212;5.952;2022-09-12T21:20:01;6.40;;;3.90;;
72590;SDS011;60625;51.212;5.952;2022-09-12T21:25:02;8.40;;;4.20;;
72590;SDS011;60625;51.212;5.952;2022-09-12T21:30:03;12.90;;;4.00;;
72590;SDS011;60625;51.212;5.952;2022-09-12T21:35:05;9.30;;;4.80;;
72590;SDS011;60625;51.212;5.952;2022-09-12T21:40:06;7.50;;;3.60;;
72590;SDS011;60625;51.212;5.952;2022-09-12T21:45:08;8.60;;;4.20;;
72590;SDS011;60625;51.212;5.952;2022-09-12T21:50:09;9.00;;;3.80;;
72590;SDS011;60625;51.212;5.952;2022-09-12T21:55:11;10.30;;;4.00;;
72590;SDS011;60625;51.212;5.952;2022-09-12T22:00:14;6.70;;;4.30;;
72590;SDS011;60625;51.212;5.952;2022-09-12T22:05:15;7.20;;;4.80;;
72590;SDS011;60625;51.212;5.952;2022-09-12T22:10:16;12.10;;;5.80;;
72590;SDS011;60625;51.212;5.952;2022-09-12T22:15:17;11.00;;;5.20;;
72590;SDS011;60625;51.212;5.952;2022-09-12T22:20:18;7.50;;;4.60;;
72590;SDS011;60625;51.212;5.952;2022-09-12T22:25:19;8.50;;;4.60;;
72590;SDS011;60625;51.212;5.952;2022-09-12T22:30:23;8.60;;;5.40;;
72590;SDS011;60625;51.212;5.952;2022-09-12T22:35:26;8.70;;;5.10;;
72590;SDS011;60625;51.212;5.952;2022-09-12T22:40:27;9.30;;;5.30;;
72590;SDS011;60625;51.212;5.952;2022-09-12T22:45:27;9.10;;;6.50;;
72590;SDS011;60625;51.212;5.952;2022-09-12T22:50:28;9.30;;;5.80;;
72590;SDS011;60625;51.212;5.952;2022-09-12T22:55:28;8.30;;;5.30;;
72590;SDS011;60625;51.212;5.952;2022-09-12T23:00:29;8.90;;;5.60;;
72590;SDS011;60625;51.212;5.952;2022-09-12T23:05:29;12.50;;;6.10;;
72590;SDS011;60625;51.212;5.952;2022-09-12T23:10:34;10.00;;;5.40;;
72590;SDS011;60625;51.212;5.952;2022-09-12T23:15:35;9.30;;;6.10;;
72590;SDS011;60625;51.212;5.952;2022-09-12T23:20:39;9.60;;;5.90;;
72590;SDS011;60625;51.212;5.952;2022-09-12T23:25:39;9.90;;;5.20;;
72590;SDS011;60625;51.212;5.952;2022-09-12T23:30:40;12.50;;;5.20;;
72590;SDS011;60625;51.212;5.952;2022-09-12T23:35:40;8.40;;;5.00;;
72590;SDS011;60625;51.212;5.952;2022-09-12T23:40:45;11.30;;;6.10;;
72590;SDS011;60625;51.212;5.952;2022-09-12T23:45:45;9.60;;;5.40;;
72590;SDS011;60625;51.212;5.952;2022-09-12T23:50:47;9.80;;;4.90;;
72590;SDS011;60625;51.212;5.952;2022-09-12T23:55:48;8.60;;;5.10;;
